Back to Top

Language: 

My Weather Underground Personal Weather Station Historical Data with Graphs...

Delerius Weather Station Historical Data
Daily Summary for October 27, 2017 Units:  Metric    English   Both
« Previous Day
Next Day »
Daily Weekly Monthly Yearly Custom
  High: Low: Average:
Temperature: 14.5 °C 5.6 °C 9.8 °C
Dew Point: 8.1 °C 4.6 °C 6.7 °C
Humidity: 95 % 62 % 82 %
Wind Speed: 27.4 km/h 0 km/h 7.4 km/h
Wind Gust: 43.5 km/h - -
Wind:- - WNW
Pressure: 1034.4 hPa 1027.7 hPa -
Precipitation: 0 mm    
Historical Graphs
 
 
Tabular Data for October 27, 2017
Time Temperature Dew Point Pressure Wind Wind Speed Wind Gust Humidity Rainfall Rate (Hourly) solar Conditions
00:03 9.3 °C 7.9 °C 1028 hPa NW 4.8 km/h 9.7 km/h 91 % 0 mm 0 W/m2
00:08 9.3 °C 7.9 °C 1028 hPa NW 6.4 km/h 9.7 km/h 91 % 0 mm 0 W/m2
00:13 9.3 °C 7.9 °C 1028 hPa NW 6.4 km/h 11.3 km/h 91 % 0 mm 0 W/m2
00:18 9.2 °C 7.8 °C 1028 hPa NW 4.8 km/h 14.5 km/h 91 % 0 mm 0 W/m2
00:23 9.2 °C 7.8 °C 1028 hPa WNW 4.8 km/h 11.3 km/h 91 % 0 mm 0 W/m2
00:28 9.2 °C 7.8 °C 1027.7 hPa NW 3.2 km/h 9.7 km/h 91 % 0 mm 0 W/m2
00:33 9.1 °C 7.7 °C 1028 hPa WNW 6.4 km/h 9.7 km/h 91 % 0 mm 0 W/m2
00:38 9 °C 7.6 °C 1028 hPa WNW 4.8 km/h 9.7 km/h 91 % 0 mm 0 W/m2
00:43 8.9 °C 7.5 °C 1028 hPa WNW 4.8 km/h 11.3 km/h 91 % 0 mm 0 W/m2
00:48 8.8 °C 7.4 °C 1028 hPa NW 3.2 km/h 11.3 km/h 91 % 0 mm 0 W/m2
00:53 8.8 °C 7.4 °C 1028 hPa WNW 4.8 km/h 9.7 km/h 91 % 0 mm 0 W/m2
00:58 8.7 °C 7.3 °C 1028 hPa WNW 8 km/h 11.3 km/h 91 % 0 mm 0 W/m2
01:03 8.7 °C 7.5 °C 1028 hPa WNW 6.4 km/h 12.9 km/h 92 % 0 mm 0 W/m2
01:08 8.7 °C 7.5 °C 1028 hPa WNW 4.8 km/h 9.7 km/h 92 % 0 mm 0 W/m2
01:13 8.7 °C 7.5 °C 1028 hPa NW 11.3 km/h 17.7 km/h 92 % 0 mm 0 W/m2
01:19 8.7 °C 7.5 °C 1028 hPa WNW 9.7 km/h 14.5 km/h 92 % 0 mm 0 W/m2
01:24 8.7 °C 7.3 °C 1028 hPa NW 8 km/h 12.9 km/h 91 % 0 mm 0 W/m2
01:29 8.7 °C 7.3 °C 1028 hPa NW 8 km/h 12.9 km/h 91 % 0 mm 0 W/m2
01:34 8.7 °C 7.3 °C 1028.3 hPa NNW 4.8 km/h 9.7 km/h 91 % 0 mm 0 W/m2
01:39 8.7 °C 7.2 °C 1028.3 hPa NW 8 km/h 14.5 km/h 90 % 0 mm 0 W/m2
01:44 8.7 °C 7.2 °C 1028.3 hPa NW 8 km/h 11.3 km/h 90 % 0 mm 0 W/m2
01:49 8.7 °C 7.2 °C 1028.3 hPa NW 9.7 km/h 14.5 km/h 90 % 0 mm 0 W/m2
01:54 8.8 °C 7.2 °C 1028.7 hPa WNW 9.7 km/h 14.5 km/h 90 % 0 mm 0 W/m2
01:59 8.8 °C 7.2 °C 1028.7 hPa NW 6.4 km/h 11.3 km/h 90 % 0 mm 0 W/m2
02:04 8.8 °C 7.2 °C 1028.7 hPa NW 8 km/h 16.1 km/h 90 % 0 mm 0 W/m2
02:09 8.9 °C 7.3 °C 1028.7 hPa NW 8 km/h 12.9 km/h 90 % 0 mm 0 W/m2
02:14 9.1 °C 7.6 °C 1028.7 hPa NW 8 km/h 11.3 km/h 90 % 0 mm 0 W/m2
02:19 9.1 °C 7.4 °C 1028.7 hPa WNW 1.6 km/h 6.4 km/h 89 % 0 mm 0 W/m2
02:24 9.2 °C 7.5 °C 1028.7 hPa NW 4.8 km/h 11.3 km/h 89 % 0 mm 0 W/m2
02:29 9.3 °C 7.6 °C 1028.7 hPa NW 4.8 km/h 9.7 km/h 89 % 0 mm 0 W/m2
02:34 9.3 °C 7.4 °C 1028.7 hPa NW 6.4 km/h 11.3 km/h 88 % 0 mm 0 W/m2
02:39 9.3 °C 7.4 °C 1029 hPa NW 3.2 km/h 9.7 km/h 88 % 0 mm 0 W/m2
02:44 9.3 °C 7.4 °C 1029 hPa NW 6.4 km/h 11.3 km/h 88 % 0 mm 0 W/m2
02:49 9.4 °C 7.5 °C 1029 hPa WNW 3.2 km/h 8 km/h 88 % 0 mm 0 W/m2
02:54 9.4 °C 7.5 °C 1029 hPa WNW 3.2 km/h 6.4 km/h 88 % 0 mm 0 W/m2
02:59 9.4 °C 7.5 °C 1029 hPa NW 9.7 km/h 14.5 km/h 88 % 0 mm 0 W/m2
03:04 9.3 °C 7.2 °C 1029 hPa NW 4.8 km/h 8 km/h 87 % 0 mm 0 W/m2
03:09 9.3 °C 7.2 °C 1029 hPa NW 6.4 km/h 14.5 km/h 87 % 0 mm 0 W/m2
03:14 9.2 °C 7.2 °C 1029 hPa NW 3.2 km/h 6.4 km/h 87 % 0 mm 0 W/m2
03:19 9.1 °C 7.1 °C 1029 hPa NW 3.2 km/h 9.7 km/h 87 % 0 mm 0 W/m2
03:24 8.9 °C 6.8 °C 1029 hPa NW 4.8 km/h 11.3 km/h 87 % 0 mm 0 W/m2
03:29 8.8 °C 6.8 °C 1029 hPa NW 4.8 km/h 9.7 km/h 87 % 0 mm 0 W/m2
03:39 8.7 °C 6.8 °C 1029 hPa NW 9.7 km/h 14.5 km/h 88 % 0 mm 0 W/m2
03:44 8.6 °C 6.7 °C 1029 hPa NW 3.2 km/h 9.7 km/h 88 % 0 mm 0 W/m2
03:49 8.6 °C 6.7 °C 1029.3 hPa WNW 3.2 km/h 11.3 km/h 88 % 0 mm 0 W/m2
03:54 8.5 °C 6.6 °C 1029.3 hPa Calm   3.2 km/h 88 % 0 mm 0 W/m2
03:59 8.4 °C 6.5 °C 1029.3 hPa WNW 1.6 km/h 6.4 km/h 88 % 0 mm 0 W/m2
04:04 8.3 °C 6.4 °C 1029.3 hPa NW 6.4 km/h 11.3 km/h 88 % 0 mm 0 W/m2
04:09 8.2 °C 6.3 °C 1029.3 hPa NW 6.4 km/h 9.7 km/h 88 % 0 mm 0 W/m2
04:14 8.2 °C 6.5 °C 1029.7 hPa NW 4.8 km/h 9.7 km/h 89 % 0 mm 0 W/m2
04:19 8.1 °C 6.4 °C 1029.7 hPa WNW 4.8 km/h 12.9 km/h 89 % 0 mm 0 W/m2
04:24 8.1 °C 6.4 °C 1029.7 hPa WNW 1.6 km/h 6.4 km/h 89 % 0 mm 0 W/m2
04:29 8.1 °C 6.4 °C 1029.7 hPa NW 3.2 km/h 8 km/h 89 % 0 mm 0 W/m2
04:34 7.9 °C 6.2 °C 1029.7 hPa NW 3.2 km/h 8 km/h 89 % 0 mm 0 W/m2
04:39 7.9 °C 6.2 °C 1029.7 hPa NW 4.8 km/h 9.7 km/h 89 % 0 mm 0 W/m2
04:44 7.8 °C 6.3 °C 1029.7 hPa NW 3.2 km/h 11.3 km/h 90 % 0 mm 0 W/m2
04:49 7.8 °C 6.3 °C 1029.7 hPa NW 1.6 km/h 8 km/h 90 % 0 mm 0 W/m2
04:54 7.7 °C 6 °C 1030 hPa Calm   1.6 km/h 89 % 0 mm 0 W/m2
04:59 7.6 °C 6.1 °C 1030 hPa WNW 3.2 km/h 9.7 km/h 90 % 0 mm 0 W/m2
05:04 7.4 °C 5.9 °C 1030 hPa NW 4.8 km/h 8 km/h 90 % 0 mm 0 W/m2
05:09 7.4 °C 5.9 °C 1030 hPa NW 3.2 km/h 6.4 km/h 90 % 0 mm 0 W/m2
05:14 7.3 °C 5.8 °C 1030 hPa NW 3.2 km/h 6.4 km/h 90 % 0 mm 0 W/m2
05:19 7.2 °C 5.7 °C 1030.4 hPa NW 1.6 km/h 3.2 km/h 90 % 0 mm 0 W/m2
05:24 7.1 °C 5.6 °C 1030.4 hPa NW 3.2 km/h 6.4 km/h 90 % 0 mm 0 W/m2
05:26 7.1 °C 5.6 °C 1030.4 hPa NW 3.2 km/h 6.4 km/h 90 % 0 mm 0 W/m2
05:31 7 °C 5.6 °C 1030.4 hPa NW 3.2 km/h 8 km/h 91 % 0 mm 0 W/m2
05:36 6.9 °C 5.6 °C 1030.4 hPa NW 4.8 km/h 9.7 km/h 91 % 0 mm 0 W/m2
05:41 6.9 °C 5.6 °C 1030.7 hPa NW 4.8 km/h 8 km/h 91 % 0 mm 0 W/m2
05:46 6.9 °C 5.7 °C 1030.7 hPa NW 4.8 km/h 8 km/h 92 % 0 mm 0 W/m2
05:51 6.9 °C 5.6 °C 1030.7 hPa NW 3.2 km/h 8 km/h 91 % 0 mm 0 W/m2
05:56 6.8 °C 5.4 °C 1030.7 hPa NW 4.8 km/h 9.7 km/h 91 % 0 mm 0 W/m2
06:01 6.8 °C 5.6 °C 1030.7 hPa NW 6.4 km/h 9.7 km/h 92 % 0 mm 0 W/m2
06:06 6.8 °C 5.6 °C 1031 hPa NW 4.8 km/h 9.7 km/h 92 % 0 mm 0 W/m2
06:12 6.8 °C 5.6 °C 1031 hPa NW 1.6 km/h 4.8 km/h 92 % 0 mm 0 W/m2
06:17 6.7 °C 5.5 °C 1031 hPa WNW 3.2 km/h 8 km/h 92 % 0 mm 0 W/m2
06:22 6.6 °C 5.4 °C 1031.4 hPa WNW 4.8 km/h 8 km/h 92 % 0 mm 0 W/m2
06:27 6.6 °C 5.4 °C 1031.4 hPa WNW 4.8 km/h 9.7 km/h 92 % 0 mm 0 W/m2
06:32 6.6 °C 5.4 °C 1031.4 hPa NW 3.2 km/h 6.4 km/h 92 % 0 mm 0 W/m2
06:37 6.5 °C 5.3 °C 1031.4 hPa NW 3.2 km/h 6.4 km/h 92 % 0 mm 0 W/m2
06:42 6.5 °C 5.3 °C 1031.7 hPa WNW 3.2 km/h 6.4 km/h 92 % 0 mm 0 W/m2
06:47 6.5 °C 5.4 °C 1031.7 hPa WNW 3.2 km/h 6.4 km/h 93 % 0 mm 0 W/m2
06:52 6.4 °C 5.2 °C 1031.7 hPa WNW 3.2 km/h 6.4 km/h 92 % 0 mm 0 W/m2
06:57 6.4 °C 5.3 °C 1031.7 hPa WNW 1.6 km/h 3.2 km/h 93 % 0 mm 0 W/m2
07:02 6.4 °C 5.3 °C 1031.7 hPa NW 3.2 km/h 8 km/h 93 % 0 mm 0 W/m2
07:07 6.4 °C 5.3 °C 1031.7 hPa NW 3.2 km/h 9.7 km/h 93 % 0 mm 0 W/m2
07:12 6.4 °C 5.3 °C 1032.1 hPa NW 1.6 km/h 8 km/h 93 % 0 mm 0 W/m2
07:17 6.4 °C 5.3 °C 1032.1 hPa NW 1.6 km/h 4.8 km/h 93 % 0 mm 0 W/m2
07:22 6.4 °C 5.3 °C 1032.1 hPa WNW 1.6 km/h 6.4 km/h 93 % 0 mm 0 W/m2
07:27 6.3 °C 5.1 °C 1032.1 hPa Calm   4.8 km/h 92 % 0 mm 0 W/m2
07:32 6.2 °C 5.2 °C 1032.1 hPa NW 1.6 km/h 4.8 km/h 93 % 0 mm 0 W/m2
07:37 6.2 °C 5.2 °C 1032.4 hPa NW 1.6 km/h 4.8 km/h 93 % 0 mm 0 W/m2
07:42 6.1 °C 5.1 °C 1032.4 hPa NW 3.2 km/h 6.4 km/h 93 % 0 mm 0 W/m2
07:47 6.1 °C 5.1 °C 1032.4 hPa NW 3.2 km/h 6.4 km/h 93 % 0 mm 0 W/m2
07:52 6 °C 4.9 °C 1032.4 hPa NW 1.6 km/h 4.8 km/h 93 % 0 mm 5 W/m2
07:57 6 °C 4.9 °C 1032.4 hPa Calm   3.2 km/h 93 % 0 mm 7 W/m2
08:02 5.9 °C 4.8 °C 1032.7 hPa Calm   4.8 km/h 93 % 0 mm 9 W/m2
08:07 5.9 °C 4.8 °C 1032.7 hPa Calm   1.6 km/h 93 % 0 mm 11 W/m2
08:12 5.8 °C 4.8 °C 1032.7 hPa Calm   1.6 km/h 93 % 0 mm 21 W/m2
08:18 5.7 °C 4.7 °C 1032.7 hPa Calm     93 % 0 mm 26 W/m2
08:23 5.6 °C 4.6 °C 1032.7 hPa NW 3.2 km/h 6.4 km/h 93 % 0 mm 40 W/m2
08:28 5.6 °C 4.6 °C 1032.7 hPa WNW 3.2 km/h 8 km/h 93 % 0 mm 56 W/m2
08:33 5.7 °C 4.8 °C 1032.7 hPa Calm   1.6 km/h 94 % 0 mm 70 W/m2
08:38 5.8 °C 4.9 °C 1032.7 hPa Calm     94 % 0 mm 83 W/m2
08:43 5.8 °C 4.9 °C 1033.1 hPa WNW 1.6 km/h 4.8 km/h 94 % 0 mm 97 W/m2
08:48 5.8 °C 4.9 °C 1033.1 hPa WNW 3.2 km/h 6.4 km/h 94 % 0 mm 65 W/m2
08:53 6.1 °C 5.2 °C 1033.1 hPa WNW 1.6 km/h 6.4 km/h 94 % 0 mm 121 W/m2
08:58 6.2 °C 5.4 °C 1033.1 hPa WNW 1.6 km/h 4.8 km/h 95 % 0 mm 130 W/m2
09:03 6.4 °C 5.5 °C 1033.4 hPa WNW 1.6 km/h 3.2 km/h 94 % 0 mm 141 W/m2
09:08 6.6 °C 5.7 °C 1033.4 hPa WNW 1.6 km/h 3.2 km/h 94 % 0 mm 146 W/m2
09:13 6.8 °C 5.9 °C 1033.4 hPa WNW 1.6 km/h 4.8 km/h 94 % 0 mm 153 W/m2
09:18 7 °C 6.1 °C 1033.4 hPa WNW 1.6 km/h 3.2 km/h 94 % 0 mm 162 W/m2
09:23 7.2 °C 6.3 °C 1033.4 hPa WNW 3.2 km/h 9.7 km/h 94 % 0 mm 172 W/m2
09:28 7.6 °C 6.7 °C 1033.7 hPa WNW 3.2 km/h 8 km/h 94 % 0 mm 183 W/m2
09:33 8.1 °C 7.2 °C 1033.7 hPa WNW 1.6 km/h 8 km/h 94 % 0 mm 192 W/m2
09:38 8.5 °C 7.3 °C 1033.7 hPa WNW 4.8 km/h 9.7 km/h 92 % 0 mm 200 W/m2
09:43 8.9 °C 7.5 °C 1034.1 hPa WNW 4.8 km/h 9.7 km/h 91 % 0 mm 211 W/m2
09:44 9.1 °C 7.6 °C 1034.1 hPa WNW 3.2 km/h 8 km/h 90 % 0 mm 211 W/m2
09:49 9.4 °C 7.5 °C 1034.1 hPa WNW 4.8 km/h 8 km/h 88 % 0 mm 221 W/m2
09:54 9.8 °C 7.7 °C 1034.1 hPa NW 4.8 km/h 14.5 km/h 87 % 0 mm 107 W/m2
09:59 10.1 °C 7.5 °C 1034.1 hPa NW 3.2 km/h 8 km/h 84 % 0 mm 243 W/m2
10:04 10.3 °C 7.6 °C 1034.1 hPa NW 6.4 km/h 11.3 km/h 83 % 0 mm 253 W/m2
10:09 10.5 °C 7.4 °C 1034.1 hPa NW 4.8 km/h 12.9 km/h 81 % 0 mm 264 W/m2
10:14 10.7 °C 7.6 °C 1034.1 hPa WNW 4.8 km/h 12.9 km/h 81 % 0 mm 274 W/m2
10:19 10.9 °C 7.6 °C 1034.4 hPa NW 6.4 km/h 12.9 km/h 80 % 0 mm 287 W/m2
10:24 11.1 °C 7.4 °C 1034.4 hPa WNW 8 km/h 12.9 km/h 78 % 0 mm 295 W/m2
10:29 11.1 °C 7.2 °C 1034.4 hPa NW 6.4 km/h 11.3 km/h 77 % 0 mm 306 W/m2
10:34 11.3 °C 7.4 °C 1034.4 hPa NW 8 km/h 14.5 km/h 77 % 0 mm 316 W/m2
10:39 11.4 °C 7.5 °C 1034.4 hPa NW 3.2 km/h 11.3 km/h 77 % 0 mm 323 W/m2
10:45 11.6 °C 7.5 °C 1034.4 hPa NNW 3.2 km/h 11.3 km/h 76 % 0 mm 332 W/m2
10:50 11.7 °C 7.4 °C 1034.1 hPa WNW 4.8 km/h 11.3 km/h 75 % 0 mm 341 W/m2
10:55 11.9 °C 7.6 °C 1034.1 hPa WNW 6.4 km/h 14.5 km/h 75 % 0 mm 348 W/m2
11:00 12.1 °C 7.6 °C 1034.1 hPa NW 6.4 km/h 11.3 km/h 74 % 0 mm 355 W/m2
11:05 12.2 °C 7.5 °C 1034.1 hPa WNW 4.8 km/h 9.7 km/h 73 % 0 mm 364 W/m2
11:10 12.3 °C 7.4 °C 1034.1 hPa NW 1.6 km/h 8 km/h 72 % 0 mm 373 W/m2
11:15 12.4 °C 7.5 °C 1033.7 hPa NW 3.2 km/h 6.4 km/h 72 % 0 mm 380 W/m2
11:20 12.6 °C 7.5 °C 1033.7 hPa WNW 6.4 km/h 8 km/h 71 % 0 mm 387 W/m2
11:25 12.6 °C 7.3 °C 1033.7 hPa West 3.2 km/h 8 km/h 70 % 0 mm 394 W/m2
11:30 12.5 °C 7.4 °C 1034.1 hPa West 6.4 km/h 9.7 km/h 71 % 0 mm 399 W/m2
11:35 12.6 °C 7.3 °C 1034.1 hPa West 3.2 km/h 8 km/h 70 % 0 mm 404 W/m2
11:40 12.7 °C 7.4 °C 1034.1 hPa WNW 4.8 km/h 9.7 km/h 70 % 0 mm 408 W/m2
11:45 12.8 °C 7.3 °C 1034.1 hPa Calm   3.2 km/h 69 % 0 mm 413 W/m2
11:50 12.9 °C 7.1 °C 1034.4 hPa West 4.8 km/h 9.7 km/h 68 % 0 mm 417 W/m2
11:55 12.9 °C 6.9 °C 1034.4 hPa West 4.8 km/h 11.3 km/h 67 % 0 mm 422 W/m2
12:00 12.9 °C 7.1 °C 1034.4 hPa WNW 6.4 km/h 12.9 km/h 68 % 0 mm 425 W/m2
12:05 13 °C 7.2 °C 1034.4 hPa WNW 3.2 km/h 6.4 km/h 68 % 0 mm 427 W/m2
12:10 13.2 °C 7.2 °C 1034.4 hPa WNW 3.2 km/h 8 km/h 67 % 0 mm 434 W/m2
12:15 13.3 °C 7.1 °C 1034.4 hPa WNW 4.8 km/h 12.9 km/h 66 % 0 mm 436 W/m2
12:20 13.3 °C 6.6 °C 1034.4 hPa West 9.7 km/h 12.9 km/h 64 % 0 mm 438 W/m2
12:25 13.4 °C 6.7 °C 1034.4 hPa West 3.2 km/h 8 km/h 64 % 0 mm 438 W/m2
12:30 13.5 °C 7.1 °C 1034.4 hPa WNW 1.6 km/h 6.4 km/h 65 % 0 mm 441 W/m2
12:35 13.6 °C 6.9 °C 1034.4 hPa West 4.8 km/h 9.7 km/h 64 % 0 mm 443 W/m2
12:40 13.8 °C 7.1 °C 1034.4 hPa NW 6.4 km/h 11.3 km/h 64 % 0 mm 445 W/m2
12:45 13.9 °C 6.7 °C 1034.1 hPa NW 3.2 km/h 6.4 km/h 62 % 0 mm 443 W/m2
12:50 13.9 °C 6.9 °C 1034.1 hPa WSW 6.4 km/h 16.1 km/h 63 % 0 mm 441 W/m2
12:55 13.9 °C 6.7 °C 1034.1 hPa WNW 6.4 km/h 12.9 km/h 62 % 0 mm 445 W/m2
13:00 14.1 °C 6.9 °C 1034.1 hPa West 6.4 km/h 11.3 km/h 62 % 0 mm 443 W/m2
13:05 14.1 °C 6.9 °C 1033.7 hPa West 9.7 km/h 19.3 km/h 62 % 0 mm 443 W/m2
13:10 14.1 °C 6.9 °C 1034.1 hPa WNW 9.7 km/h 14.5 km/h 62 % 0 mm 441 W/m2
13:16 14.1 °C 6.9 °C 1033.7 hPa West 9.7 km/h 14.5 km/h 62 % 0 mm 441 W/m2
13:21 14.2 °C 7 °C 1033.7 hPa West 9.7 km/h 14.5 km/h 62 % 0 mm 436 W/m2
13:26 14.3 °C 7.1 °C 1033.7 hPa West 8 km/h 12.9 km/h 62 % 0 mm 434 W/m2
13:31 14.4 °C 7.2 °C 1033.7 hPa West 9.7 km/h 14.5 km/h 62 % 0 mm 432 W/m2
13:37 14.4 °C 7.2 °C 1033.7 hPa NW 16.1 km/h 22.5 km/h 62 % 0 mm 429 W/m2
13:42 14.4 °C 7.2 °C 1033.7 hPa WNW 9.7 km/h 20.9 km/h 62 % 0 mm 424 W/m2
13:47 14.4 °C 7.2 °C 1033.7 hPa WNW 14.5 km/h 22.5 km/h 62 % 0 mm 418 W/m2
13:52 14.4 °C 7.4 °C 1033.7 hPa WNW 14.5 km/h 22.5 km/h 63 % 0 mm 413 W/m2
13:57 14.4 °C 7.4 °C 1033.7 hPa WNW 12.9 km/h 17.7 km/h 63 % 0 mm 410 W/m2
14:02 14.4 °C 7.4 °C 1033.7 hPa WNW 14.5 km/h 22.5 km/h 63 % 0 mm 399 W/m2
14:07 14.4 °C 7.4 °C 1033.7 hPa WNW 11.3 km/h 22.5 km/h 63 % 0 mm 396 W/m2
14:12 14.4 °C 7.4 °C 1033.7 hPa WNW 16.1 km/h 22.5 km/h 63 % 0 mm 410 W/m2
14:17 14.4 °C 7.7 °C 1033.7 hPa WNW 14.5 km/h 25.7 km/h 64 % 0 mm 397 W/m2
14:22 14.4 °C 7.7 °C 1033.7 hPa WNW 9.7 km/h 16.1 km/h 64 % 0 mm 392 W/m2
14:27 14.4 °C 7.7 °C 1033.7 hPa NW 9.7 km/h 19.3 km/h 64 % 0 mm 373 W/m2
14:32 14.4 °C 7.9 °C 1033.7 hPa West 12.9 km/h 19.3 km/h 65 % 0 mm 359 W/m2
14:34 14.5 °C 8 °C 1033.7 hPa West 12.9 km/h 17.7 km/h 65 % 0 mm 359 W/m2
14:39 14.5 °C 8 °C 1033.7 hPa West 9.7 km/h 16.1 km/h 65 % 0 mm 348 W/m2
14:44 14.4 °C 7.9 °C 1033.4 hPa West 12.9 km/h 20.9 km/h 65 % 0 mm 341 W/m2
14:50 14.4 °C 7.9 °C 1033.4 hPa WNW 11.3 km/h 17.7 km/h 65 % 0 mm 334 W/m2
14:55 14.4 °C 7.9 °C 1033.4 hPa West 12.9 km/h 20.9 km/h 65 % 0 mm 320 W/m2
15:00 14.3 °C 8.1 °C 1033.7 hPa WNW 9.7 km/h 19.3 km/h 66 % 0 mm 320 W/m2
15:01 14.3 °C 8.1 °C 1033.7 hPa WNW 12.9 km/h 20.9 km/h 66 % 0 mm 332 W/m2
15:06 14.1 °C 7.6 °C 1033.7 hPa WNW 11.3 km/h 19.3 km/h 65 % 0 mm 58 W/m2
15:11 13.9 °C 7.9 °C 1033.7 hPa WNW 12.9 km/h 17.7 km/h 67 % 0 mm 306 W/m2
15:16 13.9 °C 7.9 °C 1033.7 hPa West 14.5 km/h 20.9 km/h 67 % 0 mm 260 W/m2
15:22 13.9 °C 7.7 °C 1033.7 hPa WNW 17.7 km/h 25.7 km/h 66 % 0 mm 309 W/m2
15:27 14 °C 7.9 °C 1033.7 hPa WNW 12.9 km/h 22.5 km/h 67 % 0 mm 336 W/m2
15:32 14.1 °C 7.8 °C 1033.7 hPa WNW 12.9 km/h 22.5 km/h 66 % 0 mm 174 W/m2
15:37 13.9 °C 7.7 °C 1034.1 hPa West 11.3 km/h 24.1 km/h 66 % 0 mm 155 W/m2
15:42 13.6 °C 7.6 °C 1033.7 hPa WNW 12.9 km/h 25.7 km/h 67 % 0 mm 77 W/m2
15:47 13.4 °C 7.6 °C 1033.7 hPa WNW 12.9 km/h 19.3 km/h 68 % 0 mm 141 W/m2
15:52 13.5 °C 7.9 °C 1033.7 hPa WNW 8 km/h 11.3 km/h 69 % 0 mm 281 W/m2
15:57 13.8 °C 8 °C 1033.7 hPa West 8 km/h 12.9 km/h 68 % 0 mm 278 W/m2
16:02 14 °C 7.7 °C 1033.7 hPa West 14.5 km/h 25.7 km/h 66 % 0 mm 230 W/m2
16:07 13.8 °C 7.6 °C 1033.4 hPa West 14.5 km/h 20.9 km/h 66 % 0 mm 193 W/m2
16:12 13.5 °C 7.5 °C 1033.4 hPa West 9.7 km/h 16.1 km/h 67 % 0 mm 199 W/m2
16:17 13.4 °C 7.8 °C 1033.4 hPa WNW 8 km/h 12.9 km/h 69 % 0 mm 163 W/m2
16:22 13.3 °C 7.7 °C 1033.4 hPa West 9.7 km/h 17.7 km/h 69 % 0 mm 35 W/m2
16:27 13.1 °C 7.6 °C 1033.4 hPa WNW 11.3 km/h 16.1 km/h 69 % 0 mm 35 W/m2
16:32 12.9 °C 7.3 °C 1033.1 hPa West 12.9 km/h 19.3 km/h 69 % 0 mm 32 W/m2
16:37 12.7 °C 7.4 °C 1033.1 hPa West 11.3 km/h 19.3 km/h 70 % 0 mm 28 W/m2
16:42 12.6 °C 7.3 °C 1033.1 hPa West 9.7 km/h 16.1 km/h 70 % 0 mm 26 W/m2
16:47 12.5 °C 7.4 °C 1033.1 hPa West 9.7 km/h 16.1 km/h 71 % 0 mm 25 W/m2
16:52 12.4 °C 7.3 °C 1032.7 hPa West 9.7 km/h 16.1 km/h 71 % 0 mm 23 W/m2
16:57 12.3 °C 7.4 °C 1032.7 hPa WSW 9.7 km/h 14.5 km/h 72 % 0 mm 21 W/m2
17:02 12.1 °C 7.2 °C 1032.7 hPa West 6.4 km/h 11.3 km/h 72 % 0 mm 19 W/m2
17:07 12 °C 7.3 °C 1032.7 hPa SW 6.4 km/h 9.7 km/h 73 % 0 mm 18 W/m2
17:12 11.9 °C 7.2 °C 1032.7 hPa West 6.4 km/h 14.5 km/h 73 % 0 mm 18 W/m2
17:17 11.8 °C 7.3 °C 1032.7 hPa West 6.4 km/h 12.9 km/h 74 % 0 mm 16 W/m2
17:22 11.6 °C 7.1 °C 1032.7 hPa West 6.4 km/h 11.3 km/h 74 % 0 mm 14 W/m2
17:27 11.5 °C 7.2 °C 1032.7 hPa West 8 km/h 12.9 km/h 75 % 0 mm 11 W/m2
17:32 11.3 °C 7 °C 1032.7 hPa West 6.4 km/h 11.3 km/h 75 % 0 mm 9 W/m2
17:37 11.2 °C 7.1 °C 1032.7 hPa WSW 8 km/h 11.3 km/h 76 % 0 mm 7 W/m2
17:43 11.1 °C 7 °C 1032.7 hPa WSW 6.4 km/h 11.3 km/h 76 % 0 mm 5 W/m2
17:48 10.9 °C 7 °C 1032.7 hPa WNW 3.2 km/h 8 km/h 77 % 0 mm 5 W/m2
17:53 10.8 °C 6.9 °C 1032.7 hPa West 4.8 km/h 8 km/h 77 % 0 mm 0 W/m2
17:58 10.6 °C 6.9 °C 1032.4 hPa WSW 1.6 km/h 6.4 km/h 78 % 0 mm 0 W/m2
18:03 10.4 °C 6.9 °C 1032.4 hPa West 3.2 km/h 8 km/h 79 % 0 mm 0 W/m2
18:13 10.1 °C 6.8 °C 1032.7 hPa NW 1.6 km/h 6.4 km/h 80 % 0 mm 0 W/m2
18:18 9.8 °C 6.5 °C 1032.7 hPa NW 1.6 km/h 3.2 km/h 80 % 0 mm 0 W/m2
18:23 9.7 °C 6.4 °C 1032.7 hPa Calm     80 % 0 mm 0 W/m2
18:28 9.4 °C 6.3 °C 1032.7 hPa Calm     81 % 0 mm 0 W/m2
18:33 9.3 °C 6.2 °C 1032.7 hPa Calm     81 % 0 mm 0 W/m2
18:38 9.1 °C 6.2 °C 1032.7 hPa Calm     82 % 0 mm 0 W/m2
18:43 8.9 °C 6.2 °C 1032.7 hPa Calm     83 % 0 mm 0 W/m2
18:48 8.7 °C 6 °C 1032.7 hPa WNW 1.6 km/h 9.7 km/h 83 % 0 mm 0 W/m2
18:53 8.7 °C 6.3 °C 1032.7 hPa Calm   1.6 km/h 85 % 0 mm 0 W/m2
18:58 8.7 °C 6.3 °C 1032.7 hPa Calm   4.8 km/h 85 % 0 mm 0 W/m2
19:03 8.6 °C 6.2 °C 1032.7 hPa WNW 1.6 km/h 6.4 km/h 85 % 0 mm 0 W/m2
19:08 8.5 °C 6.1 °C 1032.4 hPa WNW 1.6 km/h 6.4 km/h 85 % 0 mm 0 W/m2
19:13 8.4 °C 6 °C 1032.4 hPa West 4.8 km/h 12.9 km/h 85 % 0 mm 0 W/m2
19:18 8.3 °C 5.9 °C 1032.7 hPa West 4.8 km/h 9.7 km/h 85 % 0 mm 0 W/m2
19:23 8.3 °C 6.1 °C 1032.7 hPa West 4.8 km/h 9.7 km/h 86 % 0 mm 0 W/m2
19:28 8.3 °C 6.1 °C 1032.7 hPa West 4.8 km/h 9.7 km/h 86 % 0 mm 0 W/m2
19:33 8.2 °C 6 °C 1032.7 hPa West 6.4 km/h 14.5 km/h 86 % 0 mm 0 W/m2
19:38 8.2 °C 6 °C 1032.4 hPa WNW 6.4 km/h 12.9 km/h 86 % 0 mm 0 W/m2
19:43 8.2 °C 6 °C 1032.7 hPa WNW 8 km/h 16.1 km/h 86 % 0 mm 0 W/m2
19:48 8.3 °C 6.3 °C 1032.7 hPa WNW 6.4 km/h 12.9 km/h 87 % 0 mm 0 W/m2
19:53 8.3 °C 6.3 °C 1032.7 hPa WNW 11.3 km/h 17.7 km/h 87 % 0 mm 0 W/m2
19:58 8.4 °C 6.3 °C 1032.4 hPa West 11.3 km/h 14.5 km/h 87 % 0 mm 0 W/m2
20:03 8.4 °C 6.3 °C 1032.4 hPa West 8 km/h 14.5 km/h 87 % 0 mm 0 W/m2
20:08 8.5 °C 6.3 °C 1032.4 hPa West 9.7 km/h 14.5 km/h 86 % 0 mm 0 W/m2
20:13 8.5 °C 6.3 °C 1032.4 hPa West 9.7 km/h 16.1 km/h 86 % 0 mm 0 W/m2
20:18 8.6 °C 6.4 °C 1032.4 hPa West 11.3 km/h 20.9 km/h 86 % 0 mm 0 W/m2
20:23 8.6 °C 6.4 °C 1032.4 hPa West 11.3 km/h 33.8 km/h 86 % 0 mm 0 W/m2
20:28 8.7 °C 6.3 °C 1032.4 hPa WNW 14.5 km/h 29 km/h 85 % 0 mm 0 W/m2
20:33 8.8 °C 6.4 °C 1032.4 hPa WNW 12.9 km/h 19.3 km/h 85 % 0 mm 0 W/m2
20:38 8.9 °C 6.5 °C 1032.4 hPa WNW 14.5 km/h 22.5 km/h 85 % 0 mm 0 W/m2
20:43 8.9 °C 6.3 °C 1032.4 hPa WNW 16.1 km/h 25.7 km/h 84 % 0 mm 0 W/m2
20:48 9 °C 6.4 °C 1032.4 hPa WNW 12.9 km/h 20.9 km/h 84 % 0 mm 0 W/m2
20:53 9 °C 6.4 °C 1032.1 hPa WNW 14.5 km/h 22.5 km/h 84 % 0 mm 0 W/m2
20:58 9.1 °C 6.4 °C 1032.1 hPa WNW 14.5 km/h 22.5 km/h 83 % 0 mm 0 W/m2
21:03 9.1 °C 6.4 °C 1032.1 hPa WNW 16.1 km/h 24.1 km/h 83 % 0 mm 0 W/m2
21:08 9.1 °C 6.4 °C 1032.1 hPa WNW 12.9 km/h 19.3 km/h 83 % 0 mm 0 W/m2
21:13 9.1 °C 6.4 °C 1032.1 hPa WNW 12.9 km/h 19.3 km/h 83 % 0 mm 0 W/m2
21:19 9.1 °C 6.4 °C 1032.1 hPa WNW 16.1 km/h 22.5 km/h 83 % 0 mm 0 W/m2
21:24 9.2 °C 6.4 °C 1032.1 hPa WNW 14.5 km/h 20.9 km/h 83 % 0 mm 0 W/m2
21:29 9.2 °C 6.4 °C 1032.1 hPa WNW 12.9 km/h 22.5 km/h 83 % 0 mm 0 W/m2
21:33 9.2 °C 6.3 °C 1031.7 hPa WNW 11.3 km/h 22.5 km/h 82 % 0 mm 0 W/m2
21:39 9.2 °C 6.4 °C 1031.7 hPa WNW 9.7 km/h 19.3 km/h 83 % 0 mm 0 W/m2
21:44 9.1 °C 6.4 °C 1031.7 hPa West 12.9 km/h 20.9 km/h 83 % 0 mm 0 W/m2
21:49 9.1 °C 6.4 °C 1031.7 hPa WNW 11.3 km/h 22.5 km/h 83 % 0 mm 0 W/m2
21:54 9.1 °C 6.4 °C 1031.7 hPa West 12.9 km/h 20.9 km/h 83 % 0 mm 0 W/m2
21:59 9.2 °C 6.3 °C 1031.4 hPa WNW 16.1 km/h 32.2 km/h 82 % 0 mm 0 W/m2
22:04 9.2 °C 6.3 °C 1031.4 hPa WNW 14.5 km/h 29 km/h 82 % 0 mm 0 W/m2
22:09 9.2 °C 6.3 °C 1031.4 hPa WNW 19.3 km/h 30.6 km/h 82 % 0 mm 0 W/m2
22:14 9.2 °C 6.3 °C 1031.4 hPa WNW 17.7 km/h 30.6 km/h 82 % 0 mm 0 W/m2
22:19 9.2 °C 6.3 °C 1031.4 hPa WNW 14.5 km/h 20.9 km/h 82 % 0 mm 0 W/m2
22:24 9.2 °C 6.3 °C 1031.4 hPa WNW 17.7 km/h 30.6 km/h 82 % 0 mm 0 W/m2
22:29 9.3 °C 6.4 °C 1031 hPa WNW 17.7 km/h 30.6 km/h 82 % 0 mm 0 W/m2
22:34 9.3 °C 6.4 °C 1031 hPa West 22.5 km/h 35.4 km/h 82 % 0 mm 0 W/m2
22:39 9.3 °C 6.2 °C 1031 hPa WNW 22.5 km/h 32.2 km/h 81 % 0 mm 0 W/m2
22:44 9.3 °C 6.2 °C 1031.4 hPa WNW 20.9 km/h 38.6 km/h 81 % 0 mm 0 W/m2
22:49 9.3 °C 6.2 °C 1031 hPa WNW 22.5 km/h 35.4 km/h 81 % 0 mm 0 W/m2
22:54 9.3 °C 6.2 °C 1031 hPa WNW 19.3 km/h 33.8 km/h 81 % 0 mm 0 W/m2
22:59 9.3 °C 6.2 °C 1031 hPa WNW 19.3 km/h 37 km/h 81 % 0 mm 0 W/m2
23:04 9.3 °C 6.2 °C 1031 hPa WNW 16.1 km/h 25.7 km/h 81 % 0 mm 0 W/m2
23:09 9.3 °C 6.2 °C 1030.7 hPa WNW 16.1 km/h 33.8 km/h 81 % 0 mm 0 W/m2
23:14 9.3 °C 6.2 °C 1030.7 hPa WNW 14.5 km/h 25.7 km/h 81 % 0 mm 0 W/m2
23:19 9.2 °C 6.1 °C 1030.7 hPa WNW 16.1 km/h 25.7 km/h 81 % 0 mm 0 W/m2
23:24 9.3 °C 6.4 °C 1030.4 hPa West 27.4 km/h 38.6 km/h 82 % 0 mm 0 W/m2
23:29 9.3 °C 6.4 °C 1030.4 hPa WNW 20.9 km/h 33.8 km/h 82 % 0 mm 0 W/m2
23:34 9.3 °C 6.4 °C 1030.4 hPa WNW 14.5 km/h 22.5 km/h 82 % 0 mm 0 W/m2
23:39 9.3 °C 6.4 °C 1030.4 hPa WNW 16.1 km/h 35.4 km/h 82 % 0 mm 0 W/m2
23:44 9.3 °C 6.4 °C 1030.4 hPa WNW 16.1 km/h 35.4 km/h 82 % 0 mm 0 W/m2
23:49 9.2 °C 6.3 °C 1030.4 hPa WNW 17.7 km/h 33.8 km/h 82 % 0 mm 0 W/m2
23:54 9.2 °C 6.3 °C 1030 hPa WNW 14.5 km/h 20.9 km/h 82 % 0 mm 0 W/m2
23:59 9.2 °C 6.3 °C 1030 hPa WNW 19.3 km/h 43.5 km/h 82 % 0 mm 0 W/m2
Delerius-Weather
Compliments of Weather Underground - 2.25 mb

Data updates at regular intervals.